Language: 


Des rapports , des résumés tant et plus, au choix de chacun....


Données statistiques de la station
Quotidien Rapport Janvier 1, 2017 Unités:  Métrique    Anglais   les deux
« Précédent Jour
Suivant Jour »
Quotidien Hebdomadaire Mensuel Annuel Actuel
  Haut: Bas: Moyen:
Température: 1.1 °C -2.8 °C -0.9 °C
Pt de rosée: 0.8 °C -3.1 °C -1.1 °C
Humidité: 98 % 98 % 98 %
Vitesse du vent: 16.6 km/h 0.0 km/h 8.2 km/h
Rafales: 20.9 km/h - -
Vent:- - South
Pression: 1026.0 hPa 1016.1 hPa -
Précipitation: 0.0 mm    
Historical Graphs
 
 
Données statistiques pour Janvier 1, 2017
Heure Température Point de rosée Pression Vent Vitesse du vent Refales Humidité Pluie (taux horaire)
00:00 -1.0 °C -1.3 °C 1026.0 hPa SSE 6.1 km/h 8.7 km/h 98 % 0.0 mm
00:09 -1.0 °C -1.3 °C 1026.0 hPa SSE 5.5 km/h 9.0 km/h 98 % 0.0 mm
00:19 -1.1 °C -1.3 °C 1026.0 hPa SSE 9.3 km/h 11.9 km/h 98 % 0.0 mm
00:29 -1.2 °C -1.4 °C 1026.0 hPa SSE 5.8 km/h 9.7 km/h 98 % 0.0 mm
00:39 -1.2 °C -1.4 °C 1026.0 hPa SSE 7.6 km/h 8.7 km/h 98 % 0.0 mm
00:49 -1.3 °C -1.6 °C 1024.9 hPa SSE 7.6 km/h 9.7 km/h 98 % 0.0 mm
00:59 -1.4 °C -1.7 °C 1024.9 hPa SSE 5.0 km/h 9.3 km/h 98 % 0.0 mm
01:09 -1.4 °C -1.7 °C 1024.9 hPa SSE 5.5 km/h 11.1 km/h 98 % 0.0 mm
01:19 -1.4 °C -1.7 °C 1024.9 hPa SSE 5.5 km/h 9.3 km/h 98 % 0.0 mm
01:29 -1.4 °C -1.7 °C 1024.9 hPa SSE 5.8 km/h 10.5 km/h 98 % 0.0 mm
01:39 -1.4 °C -1.7 °C 1024.9 hPa SSE 5.0 km/h 8.7 km/h 98 % 0.0 mm
01:49 -1.6 °C -1.8 °C 1024.9 hPa SSE 6.4 km/h 9.0 km/h 98 % 0.0 mm
01:59 -1.7 °C -1.9 °C 1024.9 hPa SSE 4.0 km/h 10.5 km/h 98 % 0.0 mm
02:09 -1.7 °C -1.9 °C 1024.9 hPa SSE 9.0 km/h 9.7 km/h 98 % 0.0 mm
02:19 -1.7 °C -1.9 °C 1024.9 hPa SSE 6.9 km/h 12.2 km/h 98 % 0.0 mm
02:29 -1.7 °C -1.9 °C 1024.9 hPa SSE 8.7 km/h 11.1 km/h 98 % 0.0 mm
02:39 -1.8 °C -2.1 °C 1024.9 hPa SSE 5.5 km/h 13.0 km/h 98 % 0.0 mm
02:49 -1.9 °C -2.1 °C 1023.9 hPa SSE 8.7 km/h 14.0 km/h 98 % 0.0 mm
02:59 -1.9 °C -2.1 °C 1023.9 hPa SSE 7.9 km/h 12.6 km/h 98 % 0.0 mm
03:09 -1.9 °C -2.1 °C 1023.9 hPa SSE 6.9 km/h 9.7 km/h 98 % 0.0 mm
03:19 -1.9 °C -2.1 °C 1022.9 hPa SSE 5.0 km/h 9.7 km/h 98 % 0.0 mm
03:29 -1.9 °C -2.1 °C 1022.9 hPa SSE 6.4 km/h 10.5 km/h 98 % 0.0 mm
03:39 -1.9 °C -2.1 °C 1022.9 hPa SSE 9.3 km/h 12.2 km/h 98 % 0.0 mm
03:49 -1.9 °C -2.1 °C 1022.9 hPa SSE 4.0 km/h 9.3 km/h 98 % 0.0 mm
03:59 -1.9 °C -2.2 °C 1022.9 hPa Calm   10.5 km/h 98 % 0.0 mm
04:09 -1.9 °C -2.2 °C 1022.9 hPa SSE 8.7 km/h 13.0 km/h 98 % 0.0 mm
04:19 -2.1 °C -2.3 °C 1023.9 hPa SSE 5.5 km/h 11.9 km/h 98 % 0.0 mm
04:29 -2.2 °C -2.4 °C 1023.9 hPa SSE 6.4 km/h 13.0 km/h 98 % 0.0 mm
04:39 -2.2 °C -2.4 °C 1022.9 hPa SSE 9.3 km/h 10.5 km/h 98 % 0.0 mm
04:49 -2.1 °C -2.3 °C 1022.9 hPa SSE 4.7 km/h 9.3 km/h 98 % 0.0 mm
04:59 -2.2 °C -2.4 °C 1022.9 hPa SSE 5.8 km/h 10.5 km/h 98 % 0.0 mm
05:09 -2.2 °C -2.4 °C 1021.9 hPa SSE 6.9 km/h 10.1 km/h 98 % 0.0 mm
05:19 -2.3 °C -2.5 °C 1021.9 hPa SSE 6.9 km/h 12.6 km/h 98 % 0.0 mm
05:29 -2.3 °C -2.5 °C 1021.9 hPa SSE 8.7 km/h 11.1 km/h 98 % 0.0 mm
05:39 -2.3 °C -2.5 °C 1021.9 hPa SSE 6.4 km/h 13.7 km/h 98 % 0.0 mm
05:49 -2.3 °C -2.5 °C 1020.9 hPa SSE 10.1 km/h 14.0 km/h 98 % 0.0 mm
05:59 -2.3 °C -2.5 °C 1020.9 hPa SSE 9.0 km/h 14.0 km/h 98 % 0.0 mm
06:09 -2.3 °C -2.5 °C 1020.9 hPa SSE 8.7 km/h 11.9 km/h 98 % 0.0 mm
06:19 -2.3 °C -2.5 °C 1019.9 hPa SSE 10.8 km/h 10.8 km/h 98 % 0.0 mm
06:29 -2.3 °C -2.5 °C 1019.9 hPa SSE 5.8 km/h 13.7 km/h 98 % 0.0 mm
06:39 -2.3 °C -2.5 °C 1019.9 hPa SSE 12.6 km/h 13.0 km/h 98 % 0.0 mm
06:49 -2.3 °C -2.5 °C 1020.9 hPa SSE 8.7 km/h 12.6 km/h 98 % 0.0 mm
06:59 -2.3 °C -2.5 °C 1020.9 hPa SSE 9.3 km/h 13.7 km/h 98 % 0.0 mm
07:09 -2.3 °C -2.5 °C 1020.9 hPa SSE 7.9 km/h 13.7 km/h 98 % 0.0 mm
07:19 -2.3 °C -2.5 °C 1020.9 hPa SSE 6.9 km/h 15.4 km/h 98 % 0.0 mm
07:29 -2.3 °C -2.6 °C 1020.9 hPa SSE 6.1 km/h 13.7 km/h 98 % 0.0 mm
07:39 -2.3 °C -2.6 °C 1019.9 hPa SSE 9.3 km/h 14.0 km/h 98 % 0.0 mm
07:49 -2.6 °C -2.8 °C 1019.9 hPa SSE 4.7 km/h 13.7 km/h 98 % 0.0 mm
07:59 -2.7 °C -3.0 °C 1019.9 hPa SSE 6.9 km/h 14.0 km/h 98 % 0.0 mm
08:09 -2.7 °C -3.0 °C 1019.9 hPa SSE 6.1 km/h 13.0 km/h 98 % 0.0 mm
08:19 -2.7 °C -3.0 °C 1018.8 hPa SSE 8.7 km/h 12.2 km/h 98 % 0.0 mm
08:29 -2.7 °C -2.9 °C 1018.8 hPa SSE 10.5 km/h 13.7 km/h 98 % 0.0 mm
08:39 -2.7 °C -3.0 °C 1018.8 hPa SSE 8.7 km/h 15.8 km/h 98 % 0.0 mm
08:49 -2.7 °C -3.0 °C 1018.8 hPa SSE 11.9 km/h 13.0 km/h 98 % 0.0 mm
08:59 -2.7 °C -3.0 °C 1018.8 hPa SSE 9.0 km/h 13.7 km/h 98 % 0.0 mm
09:09 -2.8 °C -3.1 °C 1018.8 hPa SSE 12.6 km/h 20.9 km/h 98 % 0.0 mm
09:19 -2.7 °C -3.0 °C 1018.8 hPa SSE 8.7 km/h 13.0 km/h 98 % 0.0 mm
09:29 -2.7 °C -3.0 °C 1018.8 hPa SSE 7.9 km/h 13.7 km/h 98 % 0.0 mm
09:39 -2.6 °C -2.8 °C 1018.2 hPa SSE 8.7 km/h 13.7 km/h 98 % 0.0 mm
09:49 -2.4 °C -2.7 °C 1018.8 hPa SSE 11.6 km/h 12.6 km/h 98 % 0.0 mm
09:59 -2.3 °C -2.6 °C 1018.8 hPa SSE 5.0 km/h 10.5 km/h 98 % 0.0 mm
10:09 -2.3 °C -2.5 °C 1018.8 hPa SSE 10.5 km/h 13.0 km/h 98 % 0.0 mm
10:19 -2.1 °C -2.3 °C 1018.8 hPa SSE 7.9 km/h 12.2 km/h 98 % 0.0 mm
10:29 -1.9 °C -2.2 °C 1018.8 hPa SSE 5.0 km/h 12.6 km/h 98 % 0.0 mm
10:39 -1.9 °C -2.1 °C 1019.9 hPa SSE 12.2 km/h 14.0 km/h 98 % 0.0 mm
10:49 -1.8 °C -2.1 °C 1018.8 hPa SSE 9.0 km/h 14.3 km/h 98 % 0.0 mm
10:59 -1.7 °C -1.9 °C 1018.8 hPa SSE 9.7 km/h 13.0 km/h 98 % 0.0 mm
11:09 -1.6 °C -1.8 °C 1018.8 hPa SSE 6.1 km/h 13.0 km/h 98 % 0.0 mm
11:19 -1.4 °C -1.7 °C 1018.8 hPa SSE 9.3 km/h 12.6 km/h 98 % 0.0 mm
11:29 -1.3 °C -1.6 °C 1018.8 hPa SSE 7.9 km/h 13.0 km/h 98 % 0.0 mm
11:39 -1.3 °C -1.6 °C 1018.8 hPa SSE 9.3 km/h 15.1 km/h 98 % 0.0 mm
11:49 -1.2 °C -1.4 °C 1018.8 hPa SSE 14.0 km/h 14.0 km/h 98 % 0.0 mm
11:59 -1.2 °C -1.4 °C 1018.8 hPa SSE 4.3 km/h 15.4 km/h 98 % 0.0 mm
12:09 -1.1 °C -1.3 °C 1018.8 hPa SSE 12.2 km/h 14.0 km/h 98 % 0.0 mm
12:19 -1.1 °C -1.3 °C 1018.2 hPa SSE 7.9 km/h 16.9 km/h 98 % 0.0 mm
12:29 -1.0 °C -1.3 °C 1018.2 hPa SSE 6.4 km/h 15.8 km/h 98 % 0.0 mm
12:39 -1.0 °C -1.3 °C 1018.2 hPa SSE 9.0 km/h 14.0 km/h 98 % 0.0 mm
12:49 -0.9 °C -1.2 °C 1016.8 hPa SSE 13.0 km/h 17.2 km/h 98 % 0.0 mm
12:59 -0.9 °C -1.2 °C 1016.8 hPa SSE 10.1 km/h 16.9 km/h 98 % 0.0 mm
13:09 -0.8 °C -1.1 °C 1016.8 hPa SSE 14.0 km/h 19.1 km/h 98 % 0.0 mm
13:19 -0.6 °C -0.9 °C 1016.8 hPa SSE 16.6 km/h 17.7 km/h 98 % 0.0 mm
13:29 -0.6 °C -0.9 °C 1016.8 hPa SSE 10.1 km/h 18.3 km/h 98 % 0.0 mm
13:39 -0.5 °C -0.8 °C 1016.8 hPa SSE 7.9 km/h 14.0 km/h 98 % 0.0 mm
13:49 -0.5 °C -0.8 °C 1018.2 hPa SSE 9.0 km/h 13.0 km/h 98 % 0.0 mm
13:59 -0.3 °C -0.6 °C 1018.2 hPa SSE 10.1 km/h 15.8 km/h 98 % 0.0 mm
14:09 -0.3 °C -0.6 °C 1016.8 hPa SSE 7.6 km/h 13.7 km/h 98 % 0.0 mm
14:19 -0.2 °C -0.5 °C 1016.8 hPa SSE 5.5 km/h 13.0 km/h 98 % 0.0 mm
14:29 -0.1 °C -0.4 °C 1016.8 hPa SSE 12.6 km/h 13.0 km/h 98 % 0.0 mm
14:39 -0.1 °C -0.4 °C 1016.8 hPa SSE 9.3 km/h 14.0 km/h 98 % 0.0 mm
14:49 0.0 °C -0.3 °C 1016.8 hPa SSE 11.9 km/h 13.7 km/h 98 % 0.0 mm
14:59 0.0 °C -0.3 °C 1016.8 hPa SSE 9.3 km/h 17.2 km/h 98 % 0.0 mm
15:09 0.1 °C -0.2 °C 1016.1 hPa SSE 15.1 km/h 15.1 km/h 98 % 0.0 mm
15:19 0.1 °C -0.2 °C 1016.1 hPa South 9.7 km/h 15.1 km/h 98 % 0.0 mm
15:29 0.1 °C -0.2 °C 1016.1 hPa SW 7.6 km/h 13.7 km/h 98 % 0.0 mm
15:39 0.1 °C -0.2 °C 1016.1 hPa South 6.4 km/h 16.3 km/h 98 % 0.0 mm
15:49 0.1 °C -0.2 °C 1016.1 hPa South 6.9 km/h 15.1 km/h 98 % 0.0 mm
15:59 0.2 °C -0.1 °C 1016.1 hPa WSW 6.9 km/h 15.8 km/h 98 % 0.0 mm
16:09 0.2 °C -0.1 °C 1016.8 hPa SSW 6.4 km/h 12.2 km/h 98 % 0.0 mm
16:19 0.3 °C 0.0 °C 1016.1 hPa SSW 4.0 km/h 13.7 km/h 98 % 0.0 mm
16:29 0.3 °C 0.0 °C 1016.1 hPa South 5.0 km/h 13.7 km/h 98 % 0.0 mm
16:39 0.3 °C 0.0 °C 1016.8 hPa South 9.7 km/h 14.0 km/h 98 % 0.0 mm
16:49 0.3 °C 0.0 °C 1016.8 hPa South 11.9 km/h 17.2 km/h 98 % 0.0 mm
16:59 0.3 °C 0.0 °C 1016.8 hPa SSW 9.0 km/h 14.0 km/h 98 % 0.0 mm
17:09 0.3 °C 0.0 °C 1016.8 hPa SSW 7.6 km/h 13.0 km/h 98 % 0.0 mm
17:19 0.3 °C 0.0 °C 1016.8 hPa South 8.7 km/h 12.6 km/h 98 % 0.0 mm
17:29 0.3 °C 0.0 °C 1016.8 hPa South 9.7 km/h 16.3 km/h 98 % 0.0 mm
17:39 0.3 °C 0.0 °C 1016.8 hPa SSW 6.9 km/h 16.6 km/h 98 % 0.0 mm
17:49 0.3 °C 0.0 °C 1016.8 hPa SSW 8.7 km/h 13.7 km/h 98 % 0.0 mm
17:59 0.3 °C 0.0 °C 1016.8 hPa South 12.6 km/h 12.6 km/h 98 % 0.0 mm
18:09 0.4 °C 0.1 °C 1016.8 hPa SSW 6.4 km/h 14.0 km/h 98 % 0.0 mm
18:19 0.4 °C 0.1 °C 1016.8 hPa SSW 9.7 km/h 14.0 km/h 98 % 0.0 mm
18:29 0.4 °C 0.1 °C 1016.8 hPa SSW 10.1 km/h 13.7 km/h 98 % 0.0 mm
18:39 0.4 °C 0.1 °C 1016.8 hPa South 10.1 km/h 14.3 km/h 98 % 0.0 mm
18:49 0.4 °C 0.1 °C 1016.8 hPa South 11.6 km/h 14.3 km/h 98 % 0.0 mm
18:59 0.4 °C 0.1 °C 1016.8 hPa SSW 6.4 km/h 12.2 km/h 98 % 0.0 mm
19:09 0.4 °C 0.1 °C 1016.8 hPa South 15.8 km/h 15.8 km/h 98 % 0.0 mm
19:19 0.4 °C 0.1 °C 1016.8 hPa South 9.3 km/h 15.8 km/h 98 % 0.0 mm
19:29 0.4 °C 0.1 °C 1016.8 hPa South 9.7 km/h 12.2 km/h 98 % 0.0 mm
19:39 0.4 °C 0.1 °C 1018.2 hPa SSW 10.1 km/h 15.4 km/h 98 % 0.0 mm
19:49 0.4 °C 0.1 °C 1018.2 hPa South 8.7 km/h 13.0 km/h 98 % 0.0 mm
19:59 0.4 °C 0.1 °C 1018.2 hPa South 5.5 km/h 15.4 km/h 98 % 0.0 mm
20:09 0.5 °C 0.2 °C 1018.2 hPa SSW 9.0 km/h 11.9 km/h 98 % 0.0 mm
20:19 0.5 °C 0.2 °C 1018.2 hPa SSW 6.9 km/h 14.3 km/h 98 % 0.0 mm
20:29 0.6 °C 0.3 °C 1018.2 hPa South 11.9 km/h 12.6 km/h 98 % 0.0 mm
20:39 0.6 °C 0.3 °C 1018.2 hPa South 6.9 km/h 15.8 km/h 98 % 0.0 mm
20:49 0.6 °C 0.3 °C 1018.2 hPa SSW 9.0 km/h 13.7 km/h 98 % 0.0 mm
20:59 0.6 °C 0.3 °C 1018.2 hPa SW 6.4 km/h 13.0 km/h 98 % 0.0 mm
21:09 0.7 °C 0.4 °C 1018.2 hPa South 8.7 km/h 14.0 km/h 98 % 0.0 mm
21:19 0.7 °C 0.4 °C 1018.2 hPa South 6.9 km/h 11.9 km/h 98 % 0.0 mm
21:29 0.7 °C 0.4 °C 1018.2 hPa South 5.8 km/h 13.7 km/h 98 % 0.0 mm
21:39 0.7 °C 0.4 °C 1018.2 hPa South 5.8 km/h 13.7 km/h 98 % 0.0 mm
21:49 0.7 °C 0.4 °C 1018.2 hPa SSW 8.7 km/h 9.7 km/h 98 % 0.0 mm
21:59 0.8 °C 0.5 °C 1018.2 hPa SSW 10.1 km/h 10.1 km/h 98 % 0.0 mm
22:09 0.8 °C 0.5 °C 1018.8 hPa SSW 6.1 km/h 12.2 km/h 98 % 0.0 mm
22:19 0.8 °C 0.5 °C 1018.8 hPa South 11.9 km/h 11.9 km/h 98 % 0.0 mm
22:29 0.9 °C 0.6 °C 1018.8 hPa South 6.4 km/h 10.1 km/h 98 % 0.0 mm
22:39 0.9 °C 0.6 °C 1018.8 hPa SSW 10.5 km/h 10.5 km/h 98 % 0.0 mm
22:49 0.9 °C 0.6 °C 1018.8 hPa SSW 5.5 km/h 10.5 km/h 98 % 0.0 mm
22:59 0.9 °C 0.6 °C 1018.8 hPa SSW 5.5 km/h 9.0 km/h 98 % 0.0 mm
23:09 1.0 °C 0.7 °C 1018.8 hPa SSW 6.9 km/h 9.7 km/h 98 % 0.0 mm
23:19 1.0 °C 0.7 °C 1018.8 hPa South 6.1 km/h 12.2 km/h 98 % 0.0 mm
23:29 1.0 °C 0.7 °C 1018.8 hPa SW 5.5 km/h 10.5 km/h 98 % 0.0 mm
23:39 1.0 °C 0.7 °C 1018.8 hPa SSW 5.5 km/h 9.7 km/h 98 % 0.0 mm
23:49 1.0 °C 0.7 °C 1018.8 hPa SSW 7.2 km/h 10.5 km/h 98 % 0.0 mm
23:59 1.1 °C 0.8 °C 1018.8 hPa SW 6.4 km/h 11.6 km/h 98 % 0.0 mm
Le Gheer Warneton
Courtoisie de Weather Underground - 1.5 mb

Mise a jour : 18/12/2017 17:42:12
Généré par Cumulus 1.9.4 (1099)